Time;durP1;ratioP1;P1;durP2;ratioP2;P2;SDS_P1;SDS_P2;PMS_P1;PMS_P2;Temp;Humidity;BMP_temperature;BMP_pressure;BME280_temperature;BME280_humidity;BME280_pressure;Samples;Min_cycle;Max_cycle;Signal;HPM_P1;HPM_P2
2023/04/18 00:01:08;;;;;;;14.50;12.27;;;;;;;8.39;61.24;102040.75;5095459;28;20642;-70
2023/04/18 00:03:35;;;;;;;13.90;12.60;;;;;;;8.43;60.95;102041.53;5095894;28;20560;-70
2023/04/18 00:06:02;;;;;;;14.53;13.00;;;;;;;8.31;61.90;102043.75;5095798;28;20202;-70
2023/04/18 00:08:29;;;;;;;13.73;12.43;;;;;;;8.22;62.84;102044.09;5095811;28;20274;-70
2023/04/18 00:10:55;;;;;;;13.90;12.50;;;;;;;8.27;62.66;102043.94;5095662;28;20727;-70
2023/04/18 00:13:22;;;;;;;13.60;12.50;;;;;;;8.23;63.39;102036.97;5095717;28;20181;-70
2023/04/18 00:15:48;;;;;;;14.53;12.63;;;;;;;8.17;63.92;102039.91;5096512;28;20210;-70
2023/04/18 00:18:16;;;;;;;15.70;13.13;;;;;;;8.10;64.39;102040.13;5095626;28;20192;-70
2023/04/18 00:20:42;;;;;;;13.47;12.30;;;;;;;8.08;64.42;102049.13;5096097;28;20178;-70
2023/04/18 00:23:12;;;;;;;13.83;12.53;;;;;;;7.97;65.41;102044.22;5095505;28;20190;-70
2023/04/18 00:25:39;;;;;;;14.03;11.60;;;;;;;8.01;66.18;102045.84;5095467;28;20209;-69
2023/04/18 00:28:06;;;;;;;13.20;12.00;;;;;;;7.93;65.92;102050.63;5095401;28;20285;-70
2023/04/18 00:30:32;;;;;;;13.13;11.87;;;;;;;7.93;66.66;102033.75;5077191;28;20241;-70
2023/04/18 00:32:59;;;;;;;14.60;13.37;;;;;;;7.91;66.55;102033.81;5095288;28;20239;-70
2023/04/18 00:35:25;;;;;;;14.13;12.73;;;;;;;7.91;67.14;102035.59;5095229;28;20612;-70
2023/04/18 00:37:52;;;;;;;14.47;12.43;;;;;;;7.87;67.34;102038.38;5095258;28;20615;-70
2023/04/18 00:40:18;;;;;;;13.83;12.37;;;;;;;7.82;67.51;102031.50;5095189;28;20178;-70
2023/04/18 00:42:45;;;;;;;12.97;11.80;;;;;;;7.66;68.57;102041.88;5095196;28;20188;-70
2023/04/18 00:45:12;;;;;;;14.07;12.53;;;;;;;7.61;68.44;102041.19;5077318;28;20213;-70
2023/04/18 00:47:39;;;;;;;13.80;12.60;;;;;;;7.71;68.17;102034.59;5095057;28;20599;-70
2023/04/18 00:50:07;;;;;;;13.13;11.87;;;;;;;7.66;68.42;102037.44;5076804;28;20225;-69
2023/04/18 00:52:34;;;;;;;13.70;12.53;;;;;;;7.61;68.77;102033.19;5095509;28;20190;-69
2023/04/18 00:55:06;;;;;;;13.00;11.80;;;;;;;7.56;69.15;102033.34;5095332;28;20612;-69
2023/04/18 00:57:33;;;;;;;12.40;11.60;;;;;;;7.46;69.51;102034.66;5095436;28;20272;-69
2023/04/18 01:00:08;;;;;;;12.23;11.37;;;;;;;7.43;69.42;102037.44;5076633;28;20192;-69
2023/04/18 01:02:36;;;;;;;12.77;11.37;;;;;;;7.35;69.80;102034.16;5095324;28;20657;-69
2023/04/18 01:05:03;;;;;;;12.17;11.40;;;;;;;7.38;70.28;102031.41;5076421;28;20221;-69
2023/04/18 01:07:32;;;;;;;12.60;11.53;;;;;;;7.35;69.97;102036.84;5076515;28;20683;-70
2023/04/18 01:10:00;;;;;;;11.63;10.80;;;;;;;7.32;69.85;102034.28;5076387;28;20263;-70
2023/04/18 01:12:26;;;;;;;11.30;10.50;;;;;;;7.33;69.80;102033.38;5094255;28;20192;-69
2023/04/18 01:14:53;;;;;;;12.20;11.37;;;;;;;7.24;70.20;102035.44;5076293;28;20212;-69
2023/04/18 01:17:21;;;;;;;10.90;10.30;;;;;;;7.26;70.17;102037.19;5076420;28;20609;-69
2023/04/18 01:19:49;;;;;;;11.57;10.57;;;;;;;7.23;70.34;102036.38;5076329;28;20703;-69
2023/04/18 01:22:17;;;;;;;11.90;10.80;;;;;;;7.17;70.56;102036.59;5094385;28;20182;-70
2023/04/18 01:24:44;;;;;;;12.17;11.13;;;;;;;7.23;70.55;102030.16;5094283;28;20700;-69
2023/04/18 01:27:12;;;;;;;11.17;10.27;;;;;;;7.11;70.35;102023.50;5076041;28;20209;-69
2023/04/18 01:29:39;;;;;;;9.87;9.47;;;;;;;7.05;70.92;102026.38;5094178;28;20222;-70
2023/04/18 01:32:06;;;;;;;11.17;10.53;;;;;;;6.97;71.20;102026.66;5094170;28;20275;-70
2023/04/18 01:34:32;;;;;;;11.43;10.73;;;;;;;6.94;71.14;102020.56;5094278;28;20224;-70
2023/04/18 01:36:59;;;;;;;12.03;11.17;;;;;;;7.00;71.43;102025.69;5094628;28;20272;-70
2023/04/18 01:39:25;;;;;;;12.60;10.67;;;;;;;6.92;71.01;102017.09;5094057;28;20190;-70
2023/04/18 01:41:52;;;;;;;11.43;10.47;;;;;;;6.94;71.65;102013.47;5094589;28;20273;-70
2023/04/18 01:44:18;;;;;;;10.77;9.87;;;;;;;6.81;72.04;102014.81;5093885;28;20695;-69
2023/04/18 01:46:44;;;;;;;11.37;10.57;;;;;;;6.81;71.93;102013.00;5094215;28;20275;-70
2023/04/18 01:49:11;;;;;;;10.80;9.83;;;;;;;6.82;71.94;102016.53;5075679;28;20294;-70
2023/04/18 01:51:38;;;;;;;11.07;10.07;;;;;;;6.68;72.45;102014.38;5093800;28;20613;-70
2023/04/18 01:54:04;;;;;;;11.53;10.80;;;;;;;6.75;72.20;102010.59;5093737;28;20559;-70
2023/04/18 01:56:31;;;;;;;10.70;9.83;;;;;;;6.69;72.19;102005.47;5093756;28;20217;-70
2023/04/18 01:58:59;;;;;;;11.37;10.53;;;;;;;6.73;72.08;102015.09;5075641;28;20243;-70
2023/04/18 02:01:26;;;;;;;11.43;10.47;;;;;;;6.69;72.50;102013.44;5075492;28;20278;-70
2023/04/18 02:03:53;;;;;;;10.87;10.17;;;;;;;6.68;72.34;102009.06;5093705;28;20220;-70
2023/04/18 02:06:19;;;;;;;12.13;10.50;;;;;;;6.66;72.26;102002.06;5093530;28;20212;-70
2023/04/18 02:08:46;;;;;;;10.70;9.97;;;;;;;6.57;72.84;102017.41;5093905;28;20181;-70
2023/04/18 02:11:13;;;;;;;11.20;10.10;;;;;;;6.62;73.00;102001.28;5093665;28;20207;-70
2023/04/18 02:13:39;;;;;;;10.67;9.87;;;;;;;6.69;72.50;102001.94;5094199;28;20217;-70
2023/04/18 02:16:11;;;;;;;11.10;10.40;;;;;;;6.57;72.47;101996.09;5075306;28;20403;-70
2023/04/18 02:18:38;;;;;;;10.27;9.67;;;;;;;6.59;72.73;101998.72;5093521;28;20206;-70
2023/04/18 02:21:06;;;;;;;10.97;10.23;;;;;;;6.53;72.80;102009.56;5093421;28;20185;-70
2023/04/18 02:23:32;;;;;;;10.53;9.83;;;;;;;6.53;72.79;102010.44;5093571;28;20227;-70
2023/04/18 02:25:58;;;;;;;10.57;9.90;;;;;;;6.47;73.55;102010.66;5093371;28;20276;-70
2023/04/18 02:28:25;;;;;;;10.47;9.77;;;;;;;6.48;73.42;102004.41;5093207;28;20277;-70
2023/04/18 02:30:51;;;;;;;10.50;9.73;;;;;;;6.45;73.41;102004.53;5075205;28;20304;-70
2023/04/18 02:33:18;;;;;;;10.00;9.33;;;;;;;6.44;73.52;102008.13;5093324;28;20220;-70
2023/04/18 02:35:44;;;;;;;10.30;9.50;;;;;;;6.41;73.76;102002.88;5075151;28;20252;-70
2023/04/18 02:38:12;;;;;;;10.47;9.87;;;;;;;6.44;73.74;102005.47;5075218;28;20294;-70
2023/04/18 02:40:39;;;;;;;10.37;9.67;;;;;;;6.47;73.57;102009.81;5075221;28;20189;-70
2023/04/18 02:43:05;;;;;;;10.40;9.77;;;;;;;6.42;73.71;102004.63;5093240;28;20269;-70
2023/04/18 02:45:31;;;;;;;10.87;10.27;;;;;;;6.38;74.09;102008.31;5075034;28;20312;-70
2023/04/18 02:47:59;;;;;;;10.07;9.43;;;;;;;6.35;74.14;102006.63;5075069;28;20186;-70
2023/04/18 02:50:27;;;;;;;9.87;9.20;;;;;;;6.36;73.98;102000.38;5074897;28;20210;-70
2023/04/18 02:52:55;;;;;;;11.10;10.30;;;;;;;6.39;74.11;102012.69;5075055;28;20193;-70
2023/04/18 02:55:27;;;;;;;9.50;9.00;;;;;;;6.41;74.13;102004.66;5075121;28;20209;-70
2023/04/18 02:57:57;;;;;;;10.83;10.23;;;;;;;6.39;73.98;102008.28;5074957;28;20198;-70
2023/04/18 03:00:57;;;;;;;10.60;9.87;;;;;;;6.35;74.16;102008.41;5048303;28;20314;-69
2023/04/18 03:03:42;;;;;;;11.03;10.23;;;;;;;6.31;74.45;101998.78;5093339;28;20181;-69
2023/04/18 03:06:31;;;;;;;10.87;10.00;;;;;;;6.30;74.34;101999.72;5084653;28;20267;-69
2023/04/18 03:09:00;;;;;;;11.40;10.60;;;;;;;6.28;74.27;102005.09;5074931;28;20186;-69
2023/04/18 03:11:27;;;;;;;10.20;9.40;;;;;;;6.27;74.57;102010.44;5074781;28;20296;-69
2023/04/18 03:13:54;;;;;;;10.40;9.80;;;;;;;6.21;74.83;102008.00;5075138;28;20190;-69
2023/04/18 03:16:23;;;;;;;10.30;9.57;;;;;;;6.23;74.89;102001.72;5075098;28;20725;-69
2023/04/18 03:18:50;;;;;;;9.70;9.10;;;;;;;6.24;74.60;102011.41;5092928;28;20659;-70
2023/04/18 03:21:18;;;;;;;11.23;10.43;;;;;;;6.15;75.01;102004.63;5074970;28;20185;-70
2023/04/18 03:23:45;;;;;;;10.60;9.90;;;;;;;6.12;75.12;102004.72;5074767;28;20631;-69
2023/04/18 03:26:12;;;;;;;10.20;9.47;;;;;;;6.02;75.49;101999.75;5074571;28;20210;-69
2023/04/18 03:28:40;;;;;;;10.93;10.03;;;;;;;6.07;75.61;102011.97;5074590;28;20201;-69
2023/04/18 03:31:07;;;;;;;11.20;10.40;;;;;;;6.15;75.56;102009.06;5074621;28;20209;-70
2023/04/18 03:33:38;;;;;;;11.00;10.30;;;;;;;6.08;75.75;102000.44;5074637;28;20205;-70
2023/04/18 03:36:08;;;;;;;11.23;10.30;;;;;;;6.00;76.00;102013.09;5077370;28;20245;-69
2023/04/18 03:38:35;;;;;;;11.53;10.47;;;;;;;5.97;76.21;102008.75;5078447;28;20288;-70
2023/04/18 03:41:01;;;;;;;12.27;11.30;;;;;;;5.89;76.62;102015.19;5078259;28;20213;-70
2023/04/18 03:43:32;;;;;;;11.53;10.73;;;;;;;5.94;76.43;102011.50;5079064;28;20181;-70
2023/04/18 03:45:58;;;;;;;10.70;9.97;;;;;;;6.09;75.79;102003.97;5078071;28;20263;-70
2023/04/18 03:48:25;;;;;;;11.70;10.57;;;;;;;6.00;76.08;102013.09;5078014;28;20189;-70
2023/04/18 03:50:52;;;;;;;10.60;9.87;;;;;;;6.02;76.27;102013.06;5078153;28;20793;-70
2023/04/18 03:53:19;;;;;;;12.77;11.63;;;;;;;6.07;76.08;102011.97;5077997;28;20189;-70
2023/04/18 03:55:46;;;;;;;14.07;10.97;;;;;;;6.12;76.14;102015.34;5077842;28;20221;-70
2023/04/18 03:58:16;;;;;;;11.90;10.90;;;;;;;6.10;76.41;102016.31;5077911;28;20557;-69
2023/04/18 04:00:43;;;;;;;12.93;11.90;;;;;;;6.13;76.25;102014.44;5077841;28;20196;-69
2023/04/18 04:03:10;;;;;;;11.67;10.90;;;;;;;6.11;76.51;102016.28;5077781;28;20216;-70
2023/04/18 04:05:38;;;;;;;11.57;10.73;;;;;;;6.14;76.83;102020.63;5078319;28;20206;-70
2023/04/18 04:08:05;;;;;;;11.97;10.90;;;;;;;6.21;76.40;102023.97;5095811;28;20221;-70
2023/04/18 04:10:32;;;;;;;13.40;12.33;;;;;;;6.25;76.35;102022.94;5077499;28;20305;-70
2023/04/18 04:12:59;;;;;;;12.20;11.47;;;;;;;6.23;76.61;102027.44;5077568;28;20662;-70
2023/04/18 04:15:26;;;;;;;12.70;11.63;;;;;;;6.32;76.43;102025.34;5077583;28;20217;-70
2023/04/18 04:17:59;;;;;;;13.70;12.57;;;;;;;6.36;76.40;102024.31;5077933;28;20194;-70
2023/04/18 04:20:26;;;;;;;13.07;11.87;;;;;;;6.36;76.38;102034.09;5077499;28;20193;-70
2023/04/18 04:23:00;;;;;;;12.80;11.77;;;;;;;6.42;76.13;102033.91;5077900;28;20545;-71
2023/04/18 04:25:29;;;;;;;13.37;12.20;;;;;;;6.47;75.87;102026.63;5077318;28;20304;-70
2023/04/18 04:28:00;;;;;;;12.70;11.63;;;;;;;6.42;75.92;102031.25;5077236;28;20194;-70
2023/04/18 04:30:27;;;;;;;12.37;11.47;;;;;;;6.42;76.25;102038.31;5077429;28;20302;-70
2023/04/18 04:32:54;;;;;;;13.07;11.93;;;;;;;6.52;76.13;102030.00;5095352;28;20193;-69
2023/04/18 04:35:21;;;;;;;12.20;11.27;;;;;;;6.52;75.91;102032.66;5077099;28;20216;-70
2023/04/18 04:37:47;;;;;;;13.27;11.87;;;;;;;6.52;76.08;102037.13;5095244;28;20190;-70
2023/04/18 04:40:23;;;;;;;13.23;12.00;;;;;;;6.57;75.84;102037.84;5077632;28;20178;-70
2023/04/18 04:43:04;;;;;;;12.50;11.50;;;;;;;6.60;75.40;102043.91;5077053;28;20193;-70
2023/04/18 04:45:38;;;;;;;13.07;12.07;;;;;;;6.63;75.81;102042.94;5076976;28;20213;-70
2023/04/18 04:48:04;;;;;;;13.37;12.27;;;;;;;6.71;75.51;102037.38;5094936;28;20768;-70
2023/04/18 04:50:39;;;;;;;13.87;12.70;;;;;;;6.69;75.68;102047.19;5095239;28;20206;-70
2023/04/18 04:53:08;;;;;;;13.93;12.73;;;;;;;6.72;75.50;102057.72;5095604;28;20208;-71
2023/04/18 04:55:35;;;;;;;12.73;11.73;;;;;;;6.69;75.75;102052.53;5094892;28;20210;-70
2023/04/18 04:58:03;;;;;;;13.13;12.07;;;;;;;6.64;75.84;102051.81;5077264;28;20210;-70
2023/04/18 05:00:51;;;;;;;12.53;11.60;;;;;;;6.70;76.03;102054.25;5084161;28;20562;-70
2023/04/18 05:03:18;;;;;;;12.83;11.73;;;;;;;6.75;75.68;102057.63;5076565;28;20193;-70
2023/04/18 05:05:45;;;;;;;13.73;12.53;;;;;;;6.71;75.72;102056.88;5094791;28;20205;-70
2023/04/18 05:08:11;;;;;;;13.33;12.17;;;;;;;6.79;75.56;102057.47;5095186;28;20642;-70
2023/04/18 05:10:38;;;;;;;14.13;12.93;;;;;;;6.79;75.38;102067.25;5094585;28;20696;-70
2023/04/18 05:13:04;;;;;;;13.87;12.90;;;;;;;6.80;75.47;102061.00;5094421;28;20209;-70
2023/04/18 05:15:31;;;;;;;13.10;12.07;;;;;;;6.88;76.00;102069.59;5095195;28;20301;-70
2023/04/18 05:17:58;;;;;;;13.83;12.83;;;;;;;6.89;75.15;102067.78;5094903;28;20236;-70
2023/04/18 05:20:24;;;;;;;13.47;12.37;;;;;;;6.94;74.74;102052.53;5059968;28;20194;-70
2023/04/18 05:22:52;;;;;;;13.87;12.80;;;;;;;6.92;74.83;102067.69;5076515;28;20271;-70
2023/04/18 05:25:18;;;;;;;14.03;12.77;;;;;;;6.98;75.07;102065.69;5094395;28;20279;-70
2023/04/18 05:27:45;;;;;;;13.37;12.30;;;;;;;7.03;75.03;102062.84;5094209;28;20751;-70
2023/04/18 05:30:12;;;;;;;12.40;11.40;;;;;;;7.08;74.91;102068.88;5094219;28;20533;-70
2023/04/18 05:32:39;;;;;;;13.23;12.03;;;;;;;7.15;74.47;102056.22;5075865;28;20214;-70
2023/04/18 05:35:06;;;;;;;13.00;12.10;;;;;;;7.19;73.80;102066.72;5094125;28;20218;-70
2023/04/18 05:37:33;;;;;;;12.23;11.17;;;;;;;7.13;74.42;102064.25;5094085;28;20218;-70
2023/04/18 05:39:59;;;;;;;13.30;12.33;;;;;;;7.17;74.00;102073.03;5094374;28;20239;-70
2023/04/18 05:42:26;;;;;;;12.93;11.97;;;;;;;7.28;74.02;102075.28;5094316;28;20188;-70
2023/04/18 05:44:53;;;;;;;14.27;12.73;;;;;;;7.35;74.27;102083.03;5093974;28;20227;-70
2023/04/18 05:47:19;;;;;;;12.17;11.30;;;;;;;7.40;73.54;102078.41;5094380;28;20273;-71
2023/04/18 05:49:46;;;;;;;12.37;11.40;;;;;;;7.40;73.88;102085.53;5093752;28;20221;-71
2023/04/18 05:52:12;;;;;;;11.53;10.83;;;;;;;7.49;73.78;102089.63;5094102;28;20201;-70
2023/04/18 05:54:39;;;;;;;17.03;12.20;;;;;;;7.53;73.22;102091.28;5093926;28;20201;-70
2023/04/18 05:57:06;;;;;;;12.80;11.87;;;;;;;7.42;73.14;102086.31;5094039;28;20272;-70
2023/04/18 05:59:32;;;;;;;12.23;11.37;;;;;;;7.44;73.61;102096.00;5094027;28;20182;-70
2023/04/18 06:01:59;;;;;;;10.73;10.03;;;;;;;7.42;73.74;102096.97;5093635;28;20214;-71
2023/04/18 06:04:26;;;;;;;11.63;10.87;;;;;;;7.47;73.63;102097.72;5093564;28;20208;-70
2023/04/18 06:06:52;;;;;;;13.87;11.73;;;;;;;7.42;72.82;102091.66;5093884;28;20186;-70
2023/04/18 06:09:19;;;;;;;12.20;11.33;;;;;;;7.39;73.43;102100.63;5093563;28;20277;-70
2023/04/18 06:11:45;;;;;;;13.47;12.27;;;;;;;7.39;73.74;102108.63;5093758;28;20301;-70
2023/04/18 06:14:12;;;;;;;13.27;12.07;;;;;;;7.41;73.85;102108.56;5093540;28;20265;-70
2023/04/18 06:16:39;;;;;;;13.70;12.57;;;;;;;7.41;73.98;102101.44;5076245;28;20554;-70
2023/04/18 06:19:05;;;;;;;11.97;11.10;;;;;;;7.43;73.47;102112.94;5093419;28;20190;-71
2023/04/18 06:21:32;;;;;;;13.03;11.83;;;;;;;7.53;73.60;102117.94;5093723;28;20656;-71
2023/04/18 06:24:00;;;;;;;15.53;12.57;;;;;;;7.50;73.82;102110.06;5093278;28;20275;-70
2023/04/18 06:26:26;;;;;;;12.90;11.83;;;;;;;7.50;73.43;102118.91;5093252;28;20241;-71
2023/04/18 06:28:53;;;;;;;12.90;11.60;;;;;;;7.55;73.77;102114.28;5093349;28;20198;-70
2023/04/18 06:31:20;;;;;;;12.13;11.13;;;;;;;7.66;73.38;102124.53;5093199;28;20243;-70
2023/04/18 06:33:46;;;;;;;12.57;11.67;;;;;;;7.66;73.28;102119.19;5093266;28;20194;-70
2023/04/18 06:36:12;;;;;;;13.37;12.03;;;;;;;7.62;73.45;102114.94;5093512;28;20296;-70
2023/04/18 06:38:39;;;;;;;13.20;11.97;;;;;;;7.76;74.13;102120.63;5093195;28;20247;-70
2023/04/18 06:41:05;;;;;;;14.43;13.10;;;;;;;7.86;73.89;102118.47;5093420;28;20258;-70
2023/04/18 06:43:32;;;;;;;14.27;12.77;;;;;;;7.96;73.51;102121.66;5093279;28;20192;-71
2023/04/18 06:45:59;;;;;;;15.70;11.87;;;;;;;8.06;73.72;102118.56;5075075;28;20218;-70
2023/04/18 06:48:26;;;;;;;14.07;12.87;;;;;;;8.01;72.64;102122.34;5098096;28;20244;-70
2023/04/18 06:50:52;;;;;;;14.73;13.30;;;;;;;7.98;72.87;102126.00;5101001;28;20185;-70
2023/04/18 06:53:19;;;;;;;15.47;14.13;;;;;;;8.01;72.84;102122.34;5093212;28;20192;-70
2023/04/18 06:55:45;;;;;;;15.57;13.77;;;;;;;7.89;72.58;102124.53;5093312;28;20231;-70
2023/04/18 06:58:14;;;;;;;15.20;13.80;;;;;;;7.96;72.40;102127.00;5093172;28;20217;-70
2023/04/18 07:00:42;;;;;;;15.00;13.70;;;;;;;8.01;72.21;102135.69;5093038;28;20185;-70
2023/04/18 07:03:11;;;;;;;13.83;12.87;;;;;;;7.88;72.76;102138.81;5093068;28;20181;-70
2023/04/18 07:05:39;;;;;;;21.93;13.00;;;;;;;7.81;73.02;102142.66;5093973;28;20240;-70
2023/04/18 07:08:06;;;;;;;25.27;14.03;;;;;;;7.70;73.63;102139.50;5093172;28;20313;-71
2023/04/18 07:10:32;;;;;;;15.57;14.03;;;;;;;7.67;74.40;102140.47;5095137;28;20268;-70
2023/04/18 07:12:58;;;;;;;14.03;12.90;;;;;;;7.72;74.15;102144.78;5096855;28;20292;-70
2023/04/18 07:15:25;;;;;;;15.67;14.23;;;;;;;7.71;73.88;102138.59;5096866;28;20224;-71
2023/04/18 07:17:51;;;;;;;15.73;14.17;;;;;;;7.71;74.30;102149.25;5096845;28;20655;-70
2023/04/18 07:20:18;;;;;;;15.50;13.97;;;;;;;7.74;74.50;102150.94;5096796;28;20531;-70
2023/04/18 07:22:46;;;;;;;16.77;14.27;;;;;;;7.83;74.69;102148.78;5096677;28;20265;-70
2023/04/18 07:25:13;;;;;;;15.83;14.30;;;;;;;7.80;74.63;102142.69;5096942;28;20307;-70
2023/04/18 07:27:39;;;;;;;17.13;15.57;;;;;;;7.86;74.49;102154.00;5096534;28;20198;-70
2023/04/18 07:30:06;;;;;;;16.27;14.77;;;;;;;7.84;74.34;102149.66;5096519;28;20558;-70
2023/04/18 07:32:33;;;;;;;15.93;14.07;;;;;;;7.89;74.16;102153.88;5096447;28;20228;-71
2023/04/18 07:35:00;;;;;;;16.07;14.53;;;;;;;8.00;73.91;102148.16;5096523;28;20575;-71
2023/04/18 07:37:26;;;;;;;15.07;13.73;;;;;;;8.04;74.06;102147.09;5096710;28;20607;-71
2023/04/18 07:39:53;;;;;;;15.97;13.97;;;;;;;8.13;73.55;102147.69;5096948;28;20659;-71
2023/04/18 07:42:19;;;;;;;16.30;14.60;;;;;;;8.10;73.07;102148.66;5096588;28;20272;-70
2023/04/18 07:44:46;;;;;;;19.90;14.77;;;;;;;7.97;74.43;102147.38;5096197;28;20281;-71
2023/04/18 07:47:12;;;;;;;18.73;16.77;;;;;;;7.89;73.79;102145.88;5096228;28;20265;-70
2023/04/18 07:49:39;;;;;;;17.97;15.03;;;;;;;7.96;74.12;102153.66;5096481;28;20276;-70
2023/04/18 07:52:06;;;;;;;20.47;16.23;;;;;;;7.86;74.37;102151.34;5096592;28;20296;-70
2023/04/18 07:54:32;;;;;;;16.97;15.23;;;;;;;7.88;74.86;102154.81;5095999;28;20216;-71
2023/04/18 07:56:59;;;;;;;21.30;17.13;;;;;;;7.99;74.40;102154.41;5096309;28;20188;-71
2023/04/18 07:59:26;;;;;;;18.40;16.17;;;;;;;7.95;75.03;102158.13;5096550;28;20286;-71
2023/04/18 08:01:53;;;;;;;21.50;15.33;;;;;;;8.00;74.94;102163.31;5096016;28;20209;-71
2023/04/18 08:04:19;;;;;;;24.53;17.43;;;;;;;8.03;74.36;102160.50;5095863;28;20279;-71
2023/04/18 08:06:46;;;;;;;18.50;16.50;;;;;;;8.07;74.82;102152.34;5095868;28;20190;-71
2023/04/18 08:09:12;;;;;;;22.93;16.90;;;;;;;8.18;73.73;102159.91;5095716;28;20703;-70
2023/04/18 08:11:41;;;;;;;19.43;15.70;;;;;;;8.15;73.66;102162.69;5095643;28;20261;-70
2023/04/18 08:14:07;;;;;;;23.20;16.63;;;;;;;8.26;74.16;102157.81;5095655;28;20216;-71
2023/04/18 08:16:34;;;;;;;21.07;15.57;;;;;;;8.35;73.41;102163.72;5095734;28;20329;-71
2023/04/18 08:19:00;;;;;;;16.23;14.50;;;;;;;8.43;73.00;102162.53;5096264;28;20199;-71
2023/04/18 08:21:27;;;;;;;18.13;14.93;;;;;;;8.50;73.17;102168.50;5095171;28;20215;-71
2023/04/18 08:23:53;;;;;;;17.80;15.83;;;;;;;8.53;72.93;102168.38;5095582;28;20616;-71
2023/04/18 08:26:20;;;;;;;17.93;14.37;;;;;;;8.61;73.19;102168.06;5095304;28;20281;-70
2023/04/18 08:28:47;;;;;;;21.90;15.17;;;;;;;8.49;73.61;102162.28;5095718;28;20190;-70
2023/04/18 08:31:15;;;;;;;17.87;14.97;;;;;;;8.65;73.39;102167.00;5095358;28;20232;-70
2023/04/18 08:33:41;;;;;;;24.27;14.87;;;;;;;8.65;72.72;102169.69;5095303;28;20193;-71
2023/04/18 08:36:08;;;;;;;17.53;14.43;;;;;;;8.71;72.53;102167.63;5095546;28;20245;-71
2023/04/18 08:38:35;;;;;;;19.60;14.57;;;;;;;8.77;72.50;102177.19;5077296;28;20366;-71
2023/04/18 08:41:01;;;;;;;17.27;15.47;;;;;;;8.72;72.30;102180.06;5095157;28;20264;-70
2023/04/18 08:43:29;;;;;;;17.83;16.03;;;;;;;8.78;72.05;102173.56;5095438;28;20591;-70
2023/04/18 08:45:58;;;;;;;16.07;14.63;;;;;;;8.75;72.68;102178.19;5095043;28;20202;-70
2023/04/18 08:48:27;;;;;;;19.63;15.73;;;;;;;8.76;72.27;102169.22;5095622;28;20220;-71
2023/04/18 08:50:57;;;;;;;19.40;15.60;;;;;;;8.67;72.05;102170.50;5095271;28;20200;-70
2023/04/18 08:53:25;;;;;;;16.33;14.73;;;;;;;8.54;72.50;102178.13;5094914;28;20258;-70
2023/04/18 08:55:55;;;;;;;16.97;15.17;;;;;;;8.54;72.41;102178.13;5094942;28;20259;-70
2023/04/18 08:58:23;;;;;;;18.43;15.07;;;;;;;8.42;73.47;102175.94;5094914;28;20214;-70
2023/04/18 09:00:51;;;;;;;16.43;14.57;;;;;;;8.51;72.55;102179.09;5094826;28;20599;-71
2023/04/18 09:03:38;;;;;;;15.73;14.33;;;;;;;8.60;72.49;102175.22;5094729;28;20181;-70
2023/04/18 09:06:12;;;;;;;18.40;15.13;;;;;;;8.50;72.85;102173.84;5094959;28;20219;-70
2023/04/18 09:08:42;;;;;;;16.67;15.00;;;;;;;8.60;73.16;102177.88;5094957;28;20174;-72
2023/04/18 09:11:23;;;;;;;16.70;14.97;;;;;;;8.49;72.94;102175.63;5095238;28;20527;-70
2023/04/18 09:13:50;;;;;;;16.97;15.13;;;;;;;8.57;72.73;102172.66;5094799;28;20650;-70
2023/04/18 09:16:21;;;;;;;16.43;14.83;;;;;;;8.65;73.20;102173.22;5094708;28;20654;-71
2023/04/18 09:19:07;;;;;;;16.40;14.80;;;;;;;8.63;74.02;102182.22;5094480;28;20208;-71
2023/04/18 09:21:37;;;;;;;19.07;15.53;;;;;;;8.61;73.54;102184.94;5094429;28;20573;-70
2023/04/18 09:24:21;;;;;;;17.33;15.00;;;;;;;8.64;73.41;102187.50;5094856;28;20256;-70
2023/04/18 09:26:48;;;;;;;18.03;15.93;;;;;;;8.53;73.71;102189.72;5094440;28;20727;-70
2023/04/18 09:29:17;;;;;;;22.67;15.97;;;;;;;8.61;73.62;102186.75;5094574;28;20629;-70
2023/04/18 09:32:00;;;;;;;18.20;16.03;;;;;;;8.54;74.30;102179.91;5094025;28;20230;-71
2023/04/18 09:34:27;;;;;;;18.47;15.77;;;;;;;8.49;74.26;102177.44;5093859;28;20216;-71
2023/04/18 09:37:08;;;;;;;18.93;15.83;;;;;;;8.61;74.46;102173.41;5094138;28;20668;-71
2023/04/18 09:39:41;;;;;;;19.20;16.20;;;;;;;8.63;74.80;102179.56;5094708;28;20227;-71
2023/04/18 09:42:09;;;;;;;19.63;14.70;;;;;;;8.72;74.46;102180.06;5094296;28;20641;-71
2023/04/18 09:44:37;;;;;;;17.47;15.23;;;;;;;8.75;73.62;102178.19;5093961;28;20731;-70
2023/04/18 09:47:05;;;;;;;17.67;15.83;;;;;;;8.75;74.08;102178.19;5093976;28;20190;-70
2023/04/18 09:49:31;;;;;;;17.80;15.73;;;;;;;8.76;74.29;102174.56;5093910;28;20186;-71
2023/04/18 09:51:59;;;;;;;19.93;16.20;;;;;;;8.71;74.27;102172.09;5094048;28;20210;-70
2023/04/18 09:54:31;;;;;;;20.87;15.70;;;;;;;8.68;74.04;102170.41;5093752;28;20304;-70
2023/04/18 09:56:59;;;;;;;20.07;15.83;;;;;;;8.63;74.64;102174.22;5093770;28;20178;-70
2023/04/18 09:59:34;;;;;;;18.03;16.13;;;;;;;8.79;74.48;102172.66;5093749;28;20270;-72
2023/04/18 10:02:04;;;;;;;20.93;17.60;;;;;;;8.79;74.06;102164.66;5093688;28;20200;-70
2023/04/18 10:04:32;;;;;;;18.87;16.10;;;;;;;8.92;74.79;102170.34;5093658;28;20202;-71
2023/04/18 10:07:00;;;;;;;17.97;16.03;;;;;;;9.04;74.00;102169.81;5094210;28;20583;-71
2023/04/18 10:09:32;;;;;;;23.90;16.70;;;;;;;9.03;74.29;102162.75;5093868;28;20268;-70
2023/04/18 10:12:01;;;;;;;21.27;17.10;;;;;;;9.03;73.76;102165.44;5093846;28;20284;-71
2023/04/18 10:14:31;;;;;;;23.23;17.10;;;;;;;9.12;73.88;102172.16;5093488;28;20292;-70
2023/04/18 10:16:58;;;;;;;20.90;16.73;;;;;;;9.32;74.31;102169.53;5093532;28;20265;-71
2023/04/18 10:19:27;;;;;;;18.93;15.60;;;;;;;9.38;73.41;102168.38;5093495;28;20217;-70
2023/04/18 10:21:56;;;;;;;18.73;15.87;;;;;;;9.58;72.50;102156.81;5094002;28;20675;-71
2023/04/18 10:24:48;;;;;;;19.37;16.70;;;;;;;9.63;73.26;102165.50;5093366;28;20695;-70
2023/04/18 10:27:16;;;;;;;29.07;17.70;;;;;;;9.63;72.41;102160.16;5093278;28;20680;-70
2023/04/18 10:29:46;;;;;;;19.33;17.10;;;;;;;9.65;71.40;102152.03;5093370;28;20243;-71
2023/04/18 10:32:13;;;;;;;22.20;17.83;;;;;;;9.50;72.10;102162.47;5093794;28;20206;-70
2023/04/18 10:34:40;;;;;;;17.93;15.93;;;;;;;9.60;72.83;102157.63;5075181;28;20304;-70
2023/04/18 10:37:06;;;;;;;26.53;16.60;;;;;;;9.85;72.61;102157.38;5093287;28;20261;-70
2023/04/18 10:39:49;;;;;;;19.30;16.70;;;;;;;10.00;71.97;102153.13;5093821;28;20584;-70
2023/04/18 10:42:16;;;;;;;19.40;17.23;;;;;;;10.19;71.57;102155.81;5093331;28;20192;-71
2023/04/18 10:44:42;;;;;;;22.87;17.63;;;;;;;10.30;71.73;102155.34;5095734;28;20243;-71
2023/04/18 10:47:09;;;;;;;26.23;17.50;;;;;;;10.28;70.37;102147.38;5097356;28;20647;-71
2023/04/18 10:49:35;;;;;;;19.37;17.33;;;;;;;10.23;70.25;102144.03;5097346;28;20691;-71
2023/04/18 10:52:04;;;;;;;19.13;16.87;;;;;;;10.40;70.49;102144.09;5097848;28;20265;-72
2023/04/18 10:54:37;;;;;;;19.73;17.03;;;;;;;10.54;69.29;102147.94;5097685;28;20233;-71
2023/04/18 10:57:06;;;;;;;21.37;16.80;;;;;;;10.38;68.89;102148.66;5097284;28;20174;-70
2023/04/18 10:59:36;;;;;;;23.60;17.47;;;;;;;10.26;69.37;102141.19;5097265;28;20209;-70
2023/04/18 11:02:22;;;;;;;19.03;17.13;;;;;;;10.44;69.97;102139.47;5097478;28;20178;-71
2023/04/18 11:04:54;;;;;;;19.27;17.17;;;;;;;10.68;70.79;102126.69;5096994;28;20206;-71
2023/04/18 11:07:47;;;;;;;21.37;17.23;;;;;;;10.79;68.72;102131.50;5097333;28;20249;-70
2023/04/18 11:10:23;;;;;;;20.17;16.17;;;;;;;10.82;68.83;102132.22;5079575;28;20180;-70
2023/04/18 11:12:50;;;;;;;20.53;18.27;;;;;;;10.81;68.95;102130.47;5097098;28;20209;-70
2023/04/18 11:15:20;;;;;;;27.10;17.70;;;;;;;10.73;67.59;102132.69;5096847;28;20202;-70
2023/04/18 11:18:01;;;;;;;31.57;18.97;;;;;;;10.74;68.44;102126.38;5096781;28;20174;-70
2023/04/18 11:20:36;;;;;;;24.77;17.77;;;;;;;10.89;69.66;102121.19;5079097;28;20170;-70
2023/04/18 11:23:02;;;;;;;28.60;17.83;;;;;;;10.89;67.23;102118.50;5096654;28;20198;-70